CheckWX is a tool to help pilots better visualize weather data.  It is not intended as a substitute for an official pre-flight weather briefing.

07:24:50 UTC

KGFA TAF
Malmstrom AFB Heliport
Great Falls, Montana, USA
TAF AMD KGFA 200503Z 2005/2109 24009KT 9999 VCTS BKN070CB BKN200 QNH2984INS TEMPO 2005/2007 VRB12G18KT -TSRA BKN060CB BECMG 2006/2007 24009KT 9999 NSW BKN070 QNH2979INS BECMG 2015/2016 25009KT 9000 -SHRA BKN060 BKN150 QNH2970INS TEMPO 2018/2024 VRB15G25KT 8000 -TSRA BKN035CB BECMG 2101/2102 33009KT 9999 NSW SCT070 BKN100 QNH2974INS TX17/2021Z TN07/2011Z

Jun-20@
05:00 UTC

Jun-20 @ 05:00 UTC

Jun-20@
06:00 UTC

Jun-20 @ 06:00 UTC

TAF AMD KGFA 200503Z 2005/2109 24009KT 9999 VCTS BKN070CB BKN200 QNH2984INS

Expired

Wind
  • 240° at 9 KTS
Conditions
Area Thunderstorm
Cloud Levels
  • Broken at 7,000' AGL
  • Broken at 20,000' AGL

Jun-20@
05:00 UTC

Jun-20 @ 05:00 UTC

Jun-20@
07:00 UTC

Jun-20 @ 07:00 UTC

TEMPO 2005/2007 VRB12G18KT -TSRA BKN060CB

Expired

Wind
  • Variable at 12 KTS
  • {Gusting to 18 KTS
Conditions
Light Thunderstorm, Light Rain
Cloud Levels
  • Broken at 6,000' AGL

Jun-20@
06:00 UTC

Jun-20 @ 06:00 UTC

Jun-20@
15:00 UTC

Jun-20 @ 15:00 UTC

BECMG 2006/2007 24009KT 9999 NSW BKN070 QNH2979INS

Becoming

Becoming Conditions expected by Thu, Jun 20, 2019 @ 07:00 UTC

Wind
  • 240° at 9 KTS
Conditions
No significant weather
Cloud Levels
  • Broken at 7,000' AGL

Jun-20@
15:00 UTC

Jun-20 @ 15:00 UTC

Jun-21@
01:00 UTC

Jun-21 @ 01:00 UTC

BECMG 2015/2016 25009KT 9000 -SHRA BKN060 BKN150 QNH2970INS

Becoming

Becoming Conditions expected by Thu, Jun 20, 2019 @ 16:00 UTC

Wind
  • 250° at 9 KTS
Conditions
Light Rain
Cloud Levels
  • Broken at 6,000' AGL
  • Broken at 15,000' AGL

Jun-20@
18:00 UTC

Jun-20 @ 18:00 UTC

Jun-21@
00:00 UTC

Jun-21 @ 00:00 UTC

TEMPO 2018/2024 VRB15G25KT 8000 -TSRA BKN035CB

Temporary

Temporary Changes expected for less than half the time period

Wind
  • Variable at 15 KTS
  • {Gusting to 25 KTS
Conditions
Light Thunderstorm, Light Rain
Cloud Levels
  • Broken at 3,500' AGL

Jun-21@
01:00 UTC

Jun-21 @ 01:00 UTC

Jun-21@
09:00 UTC

Jun-21 @ 09:00 UTC

BECMG 2101/2102 33009KT 9999 NSW SCT070 BKN100 QNH2974INS TX17/2021Z TN07/2011Z

Becoming

Becoming Conditions expected by Fri, Jun 21, 2019 @ 02:00 UTC

Wind
  • 330° at 9 KTS
Conditions
No significant weather
Cloud Levels
  • Scattered at 7,000' AGL
  • Broken at 10,000' AGL